Time;durP1;ratioP1;P1;durP2;ratioP2;P2;SDS_P1;SDS_P2;PMS_P1;PMS_P2;Temp;Humidity;BMP_temperature;BMP_pressure;BME280_temperature;BME280_humidity;BME280_pressure;Samples;Min_cycle;Max_cycle;Signal;HPM_P1;HPM_P2
2022/06/23 00:01:10;;;;;;;;;;;;;;;34.23;25.36;100458.03;4428028;32;20008;-69
2022/06/23 00:03:36;;;;;;;;;;;;;;;34.30;25.36;100456.34;4431971;32;20000;-69
2022/06/23 00:06:04;;;;;;;;;;;;;;;34.11;25.26;100454.16;4432432;32;20081;-69
2022/06/23 00:08:30;;;;;;;;;;;;;;;34.08;25.32;100455.38;4427155;32;20001;-69
2022/06/23 00:10:57;;;;;;;;;;;;;;;33.81;25.52;100450.97;4430753;32;20011;-69
2022/06/23 00:13:38;;;;;;;;;;;;;;;34.00;25.37;100453.97;4432709;32;19989;-70
2022/06/23 00:16:04;;;;;;;;;;;;;;;34.00;25.27;100451.81;4429776;32;20290;-70
2022/06/23 00:18:32;;;;;;;;;;;;;;;34.03;25.24;100449.84;4431636;32;19950;-70
2022/06/23 00:21:03;;;;;;;;;;;;;;;33.86;25.43;100447.75;4430361;32;20226;-70
2022/06/23 00:23:31;;;;;;;;;;;;;;;33.65;25.74;100440.91;4427964;32;21073;-70
2022/06/23 00:31:28;;;;;;;;;;;;;;;34.10;25.38;100438.00;3950781;32;15726610;-70
2022/06/23 00:33:55;;;;;;;;;;;;;;;34.10;25.38;100438.00;4426738;32;20004;-71
2022/06/23 00:38:59;;;;;;;;;;;;;;;33.42;26.40;100443.41;3950151;32;15722517;-70
2022/06/23 00:41:30;;;;;;;;;;;;;;;33.42;26.40;100443.41;4422857;32;20237;-68
2022/06/23 00:43:58;;;;;;;;;;;;;;;33.04;26.64;100435.16;4433355;32;20000;-70
2022/06/23 00:46:28;;;;;;;;;;;;;;;33.00;26.72;100429.00;4431273;32;19961;-70
2022/06/23 00:48:59;;;;;;;;;;;;;;;32.39;27.34;100423.13;4432730;32;19989;-70
2022/06/23 00:51:32;;;;;;;;;;;;;;;32.67;26.96;100428.41;4429262;32;20485;-70
2022/06/23 00:54:09;;;;;;;;;;;;;;;32.58;27.08;100420.37;4432363;32;20005;-70
2022/06/23 00:59:18;;;;;;;;;;;;;;;33.07;26.63;100419.38;3949626;32;15725392;-70
2022/06/23 01:01:47;;;;;;;;;;;;;;;33.07;26.63;100419.38;4426987;32;19962;-70
2022/06/23 01:04:32;;;;;;;;;;;;;;;32.81;26.67;100413.47;4426253;32;20001;-70
2022/06/23 01:07:02;;;;;;;;;;;;;;;32.60;26.94;100414.72;4428693;32;19993;-70
2022/06/23 01:12:13;;;;;;;;;;;;;;;33.29;26.16;100408.75;3952282;32;15722450;-70
2022/06/23 01:17:16;;;;;;;;;;;;;;;33.10;26.45;100409.81;3950011;32;15723432;-70
2022/06/23 01:19:50;;;;;;;;;;;;;;;33.11;26.46;100413.09;4434765;32;20465;-70
2022/06/23 01:22:35;;;;;;;;;;;;;;;32.78;26.61;100406.72;4431285;32;20318;-70
2022/06/23 01:28:12;;;;;;;;;;;;;;;33.38;26.12;100399.31;3954448;32;15724388;-70
2022/06/23 01:30:43;;;;;;;;;;;;;;;33.38;26.12;100399.31;4440643;32;19957;-70
2022/06/23 01:33:17;;;;;;;;;;;;;;;32.83;26.56;100402.00;4439734;32;19993;-70
2022/06/23 01:35:47;;;;;;;;;;;;;;;32.72;26.75;100397.47;4438958;32;20004;-70
2022/06/23 01:38:17;;;;;;;;;;;;;;;32.84;26.58;100397.69;4437892;32;19991;-70
2022/06/23 01:40:51;;;;;;;;;;;;;;;32.86;26.51;100387.03;4439476;32;19969;-70
2022/06/23 01:43:21;;;;;;;;;;;;;;;32.91;26.47;100391.06;4439622;32;19981;-70
2022/06/23 01:45:52;;;;;;;;;;;;;;;32.96;26.54;100384.16;4439192;32;19993;-70
2022/06/23 01:48:51;;;;;;;;;;;;;;;32.92;26.48;100389.66;4440140;32;20015;-70
2022/06/23 01:51:18;;;;;;;;;;;;;;;32.53;26.95;100386.44;4438276;32;20013;-70
2022/06/23 01:53:43;;;;;;;;;;;;;;;32.66;26.73;100385.31;4439528;32;20011;-70
2022/06/23 01:56:15;;;;;;;;;;;;;;;32.10;27.51;100384.19;4443211;32;20395;-70
2022/06/23 01:58:59;;;;;;;;;;;;;;;32.39;27.20;100378.66;4434680;32;20383;-70
2022/06/23 02:01:30;;;;;;;;;;;;;;;32.20;27.10;100378.44;4439503;32;19992;-70
2022/06/23 02:03:59;;;;;;;;;;;;;;;32.44;27.04;100381.31;4440415;32;19996;-70
2022/06/23 02:06:29;;;;;;;;;;;;;;;31.94;27.59;100385.69;4440529;32;20025;-69
2022/06/23 02:16:45;;;;;;;;;;;;;;;32.60;27.10;100393.53;3949195;32;15726100;-69
2022/06/23 02:21:50;;;;;;;;;;;;;;;32.63;27.38;100397.41;3950834;32;15722419;-69
2022/06/23 02:27:11;;;;;;;;;;;;;;;32.49;27.38;100383.19;3949493;32;15724651;-69
2022/06/23 02:37:54;;;;;;;;;;;;;;;32.57;27.26;100383.88;3949853;32;15725573;-69
2022/06/23 02:42:59;;;;;;;;;;;;;;;32.08;27.54;100377.41;3948553;32;15723447;-69
2022/06/23 02:48:36;;;;;;;;;;;;;;;32.16;27.43;100372.28;3950228;32;15723280;-69
2022/06/23 02:51:09;;;;;;;;;;;;;;;32.16;27.43;100372.28;4425716;32;20015;-69
2022/06/23 02:53:44;;;;;;;;;;;;;;;31.40;28.14;100378.00;4427001;32;19961;-69
2022/06/23 02:56:29;;;;;;;;;;;;;;;31.54;27.89;100373.41;4426552;32;20077;-69
2022/06/23 02:59:14;;;;;;;;;;;;;;;31.80;27.69;100369.13;4425614;32;20030;-69
2022/06/23 03:04:22;;;;;;;;;;;;;;;32.27;27.41;100372.53;3949062;32;15722569;-69
2022/06/23 03:06:58;;;;;;;;;;;;;;;32.27;27.41;100372.53;4427803;32;19953;-69
2022/06/23 03:09:41;;;;;;;;;;;;;;;31.98;27.43;100368.59;4426845;32;20387;-69
2022/06/23 03:15:02;;;;;;;;;;;;;;;32.54;26.92;100361.75;3951392;32;15722568;-69
2022/06/23 03:17:37;;;;;;;;;;;;;;;32.54;26.92;100361.75;4426465;32;20001;-69
2022/06/23 03:22:47;;;;;;;;;;;;;;;32.25;27.32;100351.22;3956618;32;15723535;-69
2022/06/23 03:25:32;;;;;;;;;;;;;;;32.25;27.32;100351.22;4429707;32;20038;-69
2022/06/23 03:28:00;;;;;;;;;;;;;;;31.79;27.91;100347.22;4429542;32;20012;-69
2022/06/23 03:33:08;;;;;;;;;;;;;;;31.98;27.66;100351.12;3949430;32;15729541;-69
2022/06/23 03:41:50;;;;;;;;;;;;;;;31.92;27.72;100346.91;4425258;32;20008;-68
2022/06/23 03:44:24;;;;;;;;;;;;;;;31.45;28.12;100353.75;4426892;32;20012;-68
2022/06/23 03:49:46;;;;;;;;;;;;;;;31.78;27.95;100348.59;3950307;32;15723587;-69
2022/06/23 03:52:16;;;;;;;;;;;;;;;31.78;27.95;100348.59;4426103;32;19989;-69
2022/06/23 03:54:46;;;;;;;;;;;;;;;31.29;28.39;100328.28;4425725;32;20009;-69
2022/06/23 03:57:17;;;;;;;;;;;;;;;31.36;28.18;100336.94;4425699;32;20017;-69
2022/06/23 03:59:47;;;;;;;;;;;;;;;31.44;28.22;100331.06;4427661;32;20045;-69
2022/06/23 04:02:17;;;;;;;;;;;;;;;31.47;28.26;100335.69;4428782;32;19986;-69
2022/06/23 04:07:33;;;;;;;;;;;;;;;31.66;27.88;100342.47;3949856;32;15723485;-68
2022/06/23 04:10:01;;;;;;;;;;;;;;;31.66;27.88;100342.47;4426206;32;20718;-68
2022/06/23 04:12:27;;;;;;;;;;;;;;;31.30;28.33;100341.44;4427495;32;19957;-68
2022/06/23 04:14:55;;;;;;;;;;;;;;;31.35;28.23;100344.09;4428462;32;19958;-68
2022/06/23 04:17:42;;;;;;;;;;;;;;;31.27;27.94;100346.28;4431618;32;21027;-68
2022/06/23 04:25:21;;;;;;;;;;;;;;;31.85;27.75;100345.66;3949198;32;15723621;-69
2022/06/23 04:27:49;;;;;;;;;;;;;;;31.85;27.75;100345.66;4434232;32;19992;-69
2022/06/23 04:30:18;;;;;;;;;;;;;;;31.55;27.95;100345.13;4434577;32;19960;-69
2022/06/23 04:32:48;;;;;;;;;;;;;;;31.66;27.85;100342.47;4432124;32;20005;-69
2022/06/23 04:35:16;;;;;;;;;;;;;;;31.67;27.73;100343.25;4430917;32;20005;-69
2022/06/23 04:43:00;;;;;;;;;;;;;;;31.69;27.89;100352.16;3950893;32;15724560;-69
2022/06/23 04:45:45;;;;;;;;;;;;;;;31.67;27.73;100344.03;4429491;32;20016;-69
2022/06/23 04:48:18;;;;;;;;;;;;;;;31.88;27.61;100352.41;4430957;32;20016;-69
2022/06/23 04:50:50;;;;;;;;;;;;;;;31.94;27.53;100344.19;4429015;32;19996;-69
2022/06/23 04:53:18;;;;;;;;;;;;;;;32.15;27.36;100353.28;4427088;32;20402;-69
2022/06/23 04:55:47;;;;;;;;;;;;;;;32.10;27.39;100358.00;4427221;32;20444;-69
2022/06/23 04:58:20;;;;;;;;;;;;;;;32.00;27.40;100357.09;4427341;32;19962;-69
2022/06/23 05:00:48;;;;;;;;;;;;;;;32.27;27.29;100360.91;4430385;32;19976;-69
2022/06/23 05:03:33;;;;;;;;;;;;;;;32.38;27.06;100360.41;4431124;32;19985;-69
2022/06/23 05:06:18;;;;;;;;;;;;;;;32.47;27.15;100356.03;4415299;32;20322;-69
2022/06/23 05:08:46;;;;;;;;;;;;;;;32.44;27.23;100354.31;4431293;32;20018;-69
2022/06/23 05:13:49;;;;;;;;;;;;;;;32.78;26.94;100356.41;3949852;32;15723566;-68
2022/06/23 05:16:23;;;;;;;;;;;;;;;32.83;26.81;100344.47;4424638;32;20367;-69
2022/06/23 05:18:50;;;;;;;;;;;;;;;33.07;26.55;100346.47;4427321;32;20368;-69
2022/06/23 05:21:24;;;;;;;;;;;;;;;32.86;26.62;100348.34;4430276;32;19953;-69
2022/06/23 05:23:54;;;;;;;;;;;;;;;32.91;26.69;100353.91;4428014;32;19993;-69
2022/06/23 05:28:58;;;;;;;;;;;;;;;33.61;26.07;100345.03;3949880;32;15728636;-69
2022/06/23 05:31:28;;;;;;;;;;;;;;;33.61;26.07;100345.03;4429020;32;19959;-69
2022/06/23 05:33:55;;;;;;;;;;;;;;;33.10;26.55;100354.00;4427164;32;20098;-69
2022/06/23 05:39:00;;;;;;;;;;;;;;;33.91;25.52;100352.50;3949525;32;15736583;-69
2022/06/23 05:41:29;;;;;;;;;;;;;;;33.91;25.52;100352.50;4427528;32;20409;-68
2022/06/23 05:43:57;;;;;;;;;;;;;;;33.72;25.83;100353.22;4426933;32;20008;-68
2022/06/23 05:46:27;;;;;;;;;;;;;;;33.63;25.64;100347.34;4426825;32;20560;-69
2022/06/23 05:48:56;;;;;;;;;;;;;;;33.78;25.61;100352.94;4427109;32;19968;-69
2022/06/23 05:51:24;;;;;;;;;;;;;;;33.77;25.75;100354.28;4427562;32;19969;-69
2022/06/23 05:59:03;;;;;;;;;;;;;;;34.91;24.56;100351.44;3958346;31;15722633;-68
2022/06/23 06:01:31;;;;;;;;;;;;;;;34.91;24.56;100351.44;4440621;32;20343;-68
2022/06/23 06:06:33;;;;;;;;;;;;;;;35.25;24.14;100335.66;3949179;32;15727437;-69
2022/06/23 06:11:50;;;;;;;;;;;;;;;34.85;24.55;100336.38;4432292;32;19992;-69
2022/06/23 06:14:18;;;;;;;;;;;;;;;34.56;24.70;100332.72;4430016;32;19997;-69
2022/06/23 06:16:43;;;;;;;;;;;;;;;34.91;24.20;100333.91;4431342;32;20040;-69
2022/06/23 06:19:12;;;;;;;;;;;;;;;34.93;23.95;100327.44;4434419;32;19961;-69
2022/06/23 06:21:38;;;;;;;;;;;;;;;35.10;23.84;100333.88;4431638;32;20334;-69
2022/06/23 06:24:09;;;;;;;;;;;;;;;35.17;23.67;100337.97;4432130;32;20014;-69
2022/06/23 06:26:39;;;;;;;;;;;;;;;35.26;23.32;100332.13;4428375;32;19989;-69
2022/06/23 06:29:11;;;;;;;;;;;;;;;35.36;23.34;100329.16;4431963;32;20120;-69
2022/06/23 06:31:38;;;;;;;;;;;;;;;35.67;22.84;100344.56;4429572;32;20090;-69
2022/06/23 06:34:09;;;;;;;;;;;;;;;35.68;22.80;100328.53;4429166;32;20011;-69
2022/06/23 06:39:25;;;;;;;;;;;;;;;36.25;22.24;100316.41;3948089;32;15724339;-69
2022/06/23 06:41:57;;;;;;;;;;;;;;;36.25;22.24;100316.41;4422786;32;19954;-69
2022/06/23 06:44:23;;;;;;;;;;;;;;;35.72;22.43;100323.72;4418526;32;20356;-69
2022/06/23 06:46:49;;;;;;;;;;;;;;;35.93;22.41;100320.84;4421173;32;20005;-69
2022/06/23 06:49:15;;;;;;;;;;;;;;;36.08;22.27;100328.44;4414136;32;20410;-69
2022/06/23 06:51:41;;;;;;;;;;;;;;;36.42;22.06;100324.19;4414591;32;19993;-69
2022/06/23 06:54:12;;;;;;;;;;;;;;;36.50;21.82;100319.59;4416304;32;20028;-69
2022/06/23 06:56:40;;;;;;;;;;;;;;;36.53;21.87;100320.53;4421884;32;20445;-69
2022/06/23 06:59:11;;;;;;;;;;;;;;;36.56;21.83;100320.03;4420842;32;19957;-69
2022/06/23 07:01:38;;;;;;;;;;;;;;;36.48;22.03;100316.56;4416923;32;20428;-68
2022/06/23 07:04:03;;;;;;;;;;;;;;;36.80;21.60;100317.94;4414461;32;20691;-68
2022/06/23 07:06:33;;;;;;;;;;;;;;;36.64;21.81;100323.50;4414829;32;19997;-68
2022/06/23 07:09:18;;;;;;;;;;;;;;;36.51;21.81;100318.22;4418639;32;20308;-68
2022/06/23 07:14:26;;;;;;;;;;;;;;;37.46;21.13;100310.53;3942928;32;15723329;-69
2022/06/23 07:19:33;;;;;;;;;;;;;;;37.69;20.51;100307.59;3949960;32;15725003;-69
2022/06/23 07:24:40;;;;;;;;;;;;;;;37.30;20.92;100300.72;3939774;32;15722095;-69
2022/06/23 07:27:10;;;;;;;;;;;;;;;37.17;21.16;100296.19;4415222;32;20019;-68
2022/06/23 07:29:42;;;;;;;;;;;;;;;37.41;20.97;100297.78;4418740;32;20754;-69
2022/06/23 07:34:46;;;;;;;;;;;;;;;37.93;20.71;100301.03;3944227;32;15724565;-69
2022/06/23 07:37:16;;;;;;;;;;;;;;;37.93;20.71;100301.03;4418764;32;20007;-69
2022/06/23 07:39:42;;;;;;;;;;;;;;;37.45;20.99;100300.16;4419356;32;20016;-69
2022/06/23 07:44:47;;;;;;;;;;;;;;;37.77;20.78;100299.28;3952740;31;15718231;-69
2022/06/23 07:47:15;;;;;;;;;;;;;;;37.77;20.78;100299.28;4426636;32;20334;-69
2022/06/23 07:49:41;;;;;;;;;;;;;;;37.02;21.41;100290.09;4427924;32;20080;-70
2022/06/23 07:52:06;;;;;;;;;;;;;;;37.09;21.36;100294.94;4425977;32;20776;-69
2022/06/23 07:54:31;;;;;;;;;;;;;;;36.93;21.57;100282.16;4428557;32;19965;-69
2022/06/23 07:56:57;;;;;;;;;;;;;;;37.25;21.31;100284.25;4430018;32;20040;-69
2022/06/23 07:59:28;;;;;;;;;;;;;;;36.77;21.84;100284.78;4425068;32;20645;-69
2022/06/23 08:04:37;;;;;;;;;;;;;;;37.76;20.99;100286.75;3941410;32;15722283;-69
2022/06/23 08:07:05;;;;;;;;;;;;;;;37.56;21.07;100273.75;4424966;32;20027;-69
2022/06/23 08:17:48;;;;;;;;;;;;;;;38.77;19.97;100278.09;4427493;32;20078;-69
2022/06/23 08:20:14;;;;;;;;;;;;;;;39.04;19.88;100278.19;4427839;32;20420;-69
2022/06/23 08:22:42;;;;;;;;;;;;;;;39.16;19.92;100273.75;4430509;32;20291;-69
2022/06/23 08:25:09;;;;;;;;;;;;;;;39.02;20.13;100267.06;4428814;32;20003;-70
2022/06/23 08:27:34;;;;;;;;;;;;;;;39.36;19.66;100274.81;4427243;32;20324;-69
2022/06/23 08:30:03;;;;;;;;;;;;;;;39.41;19.72;100264.84;4427793;32;20035;-69
2022/06/23 08:32:30;;;;;;;;;;;;;;;39.29;19.84;100270.03;4427577;32;20060;-69
2022/06/23 08:35:03;;;;;;;;;;;;;;;39.48;19.75;100263.75;4426052;32;20221;-70
2022/06/23 08:37:49;;;;;;;;;;;;;;;39.64;19.65;100258.69;4426463;32;20359;-70
2022/06/23 08:40:31;;;;;;;;;;;;;;;39.77;19.42;100256.41;4425572;32;20434;-69
2022/06/23 08:43:20;;;;;;;;;;;;;;;39.51;19.58;100258.75;4426314;32;20055;-69
2022/06/23 08:51:01;;;;;;;;;;;;;;;39.85;19.83;100254.69;3946800;32;15725096;-70
2022/06/23 08:53:38;;;;;;;;;;;;;;;39.85;19.83;100254.69;4418908;32;20247;-69
2022/06/23 08:56:06;;;;;;;;;;;;;;;40.04;19.50;100250.47;4421048;32;19997;-70
2022/06/23 08:58:52;;;;;;;;;;;;;;;39.79;19.78;100241.78;4422497;32;20260;-69
2022/06/23 09:06:41;;;;;;;;;;;;;;;41.44;18.48;100246.34;3949848;32;15725616;-68
2022/06/23 09:11:53;;;;;;;;;;;;;;;41.76;18.10;100244.13;3944530;32;15722527;-69
2022/06/23 09:14:38;;;;;;;;;;;;;;;41.76;17.78;100243.34;4419271;32;19982;-70
2022/06/23 09:17:25;;;;;;;;;;;;;;;41.82;17.73;100243.63;4421914;32;20026;-69
2022/06/23 09:22:36;;;;;;;;;;;;;;;41.85;17.63;100242.28;3951661;32;15727260;-69
2022/06/23 09:25:22;;;;;;;;;;;;;;;41.85;17.63;100242.28;4427157;32;19965;-69
2022/06/23 09:27:59;;;;;;;;;;;;;;;41.78;17.71;100232.41;4425597;32;20004;-69
2022/06/23 09:35:58;;;;;;;;;;;;;;;42.54;16.71;100229.75;3950521;31;15731384;-70
2022/06/23 09:41:26;;;;;;;;;;;;;;;42.97;16.39;100211.50;3948637;32;15733543;-69
2022/06/23 09:47:02;;;;;;;;;;;;;;;42.90;16.05;100212.72;3944342;32;15751571;-70
2022/06/23 10:00:12;;;;;;;;;;;;;;;43.42;15.58;100190.25;3945577;32;15724970;-69
2022/06/23 10:02:52;;;;;;;;;;;;;;;43.42;15.58;100190.25;4410065;32;20005;-69
2022/06/23 10:08:04;;;;;;;;;;;;;;;44.31;14.74;100189.75;3965830;31;15718479;-68
2022/06/23 10:10:37;;;;;;;;;;;;;;;44.80;14.22;100175.03;4441386;32;19992;-68
2022/06/23 10:13:11;;;;;;;;;;;;;;;44.64;14.13;100182.69;4441417;32;20373;-68
2022/06/23 10:18:35;;;;;;;;;;;;;;;45.31;13.52;100176.53;3951358;32;15751423;-69
2022/06/23 10:21:21;;;;;;;;;;;;;;;45.31;13.52;100176.53;4427878;32;19954;-69
2022/06/23 10:31:48;;;;;;;;;;;;;;;47.33;11.83;100174.88;3947316;32;15723268;-68
2022/06/23 10:36:58;;;;;;;;;;;;;;;47.93;11.54;100182.03;3947139;32;15726507;-69
2022/06/23 10:42:23;;;;;;;;;;;;;;;47.99;11.57;100170.19;3948308;32;15725355;-70
2022/06/23 10:47:39;;;;;;;;;;;;;;;48.15;11.27;100171.22;3946991;32;15722579;-68
2022/06/23 10:50:24;;;;;;;;;;;;;;;48.31;11.23;100167.78;4419361;32;20093;-68
2022/06/23 10:53:05;;;;;;;;;;;;;;;48.79;10.98;100158.75;4420421;32;20367;-68
2022/06/23 10:58:24;;;;;;;;;;;;;;;49.28;10.61;100149.69;3942522;32;15723409;-70
2022/06/23 11:00:59;;;;;;;;;;;;;;;49.28;10.61;100149.69;4429981;32;20297;-68
2022/06/23 11:03:44;;;;;;;;;;;;;;;47.85;11.29;100146.06;4426974;32;20048;-69
2022/06/23 11:09:08;;;;;;;;;;;;;;;48.63;11.15;100140.62;3945393;32;15726186;-70
2022/06/23 11:11:54;;;;;;;;;;;;;;;48.63;11.15;100140.62;4429199;32;19990;-68
2022/06/23 11:14:40;;;;;;;;;;;;;;;48.38;10.94;100138.75;4428650;32;20413;-70
2022/06/23 11:17:25;;;;;;;;;;;;;;;48.07;11.44;100138.25;4428685;32;20304;-70
2022/06/23 11:22:34;;;;;;;;;;;;;;;47.80;11.13;100120.62;3949534;32;15722469;-70
2022/06/23 11:33:10;;;;;;;;;;;;;;;47.95;11.53;100105.25;3946035;32;15723405;-69
2022/06/23 11:35:55;;;;;;;;;;;;;;;47.95;11.53;100105.25;4414414;32;20394;-68
2022/06/23 11:41:23;;;;;;;;;;;;;;;47.11;11.89;100100.66;3947146;32;15722635;-71
2022/06/23 11:44:08;;;;;;;;;;;;;;;47.11;11.89;100100.66;4417430;32;20012;-70
2022/06/23 11:46:35;;;;;;;;;;;;;;;46.72;12.03;100091.63;4417675;32;19958;-70
2022/06/23 11:49:09;;;;;;;;;;;;;;;47.79;11.35;100093.00;4418480;32;20381;-71
2022/06/23 11:54:19;;;;;;;;;;;;;;;48.36;10.56;100091.69;3951719;32;15722117;-70
2022/06/23 12:01:57;;;;;;;;;;;;;;;47.03;12.06;100093.78;3943859;32;15729144;-71
2022/06/23 12:07:09;;;;;;;;;;;;;;;47.91;11.42;100089.50;3946545;32;15723605;-70
2022/06/23 12:09:41;;;;;;;;;;;;;;;47.91;11.42;100089.50;4419407;32;20382;-70
2022/06/23 12:12:07;;;;;;;;;;;;;;;48.06;11.20;100086.00;4421162;32;19989;-70
2022/06/23 12:14:34;;;;;;;;;;;;;;;48.21;11.07;100078.78;4409547;32;19972;-70
2022/06/23 12:19:40;;;;;;;;;;;;;;;49.45;10.28;100078.88;3955841;32;15724450;-69
2022/06/23 12:22:25;;;;;;;;;;;;;;;49.45;10.28;100078.88;4425118;32;20666;-69
2022/06/23 12:25:00;;;;;;;;;;;;;;;48.08;11.03;100079.31;4427295;32;20276;-69
2022/06/23 12:27:33;;;;;;;;;;;;;;;48.38;10.95;100073.81;4431330;32;20001;-70
2022/06/23 12:32:44;;;;;;;;;;;;;;;49.50;10.26;100068.47;3946195;32;15723551;-68
2022/06/23 12:37:51;;;;;;;;;;;;;;;48.73;10.80;100069.09;3953584;32;15723508;-68
2022/06/23 12:40:23;;;;;;;;;;;;;;;48.73;10.80;100069.09;4424103;32;20004;-69
2022/06/23 12:42:52;;;;;;;;;;;;;;;47.78;10.99;100066.88;4424498;32;19957;-68
2022/06/23 12:50:48;;;;;;;;;;;;;;;48.50;10.79;100059.06;3933357;32;15729515;-69
2022/06/23 12:53:30;;;;;;;;;;;;;;;48.50;10.79;100059.06;4403968;32;20508;-69
2022/06/23 13:01:44;;;;;;;;;;;;;;;49.99;10.18;100045.72;3946579;32;15723573;-70
2022/06/23 13:04:23;;;;;;;;;;;;;;;49.99;10.18;100045.72;4432608;32;20474;-70
2022/06/23 13:06:59;;;;;;;;;;;;;;;50.60;9.92;100047.56;4431676;32;19964;-69
2022/06/23 13:14:53;;;;;;;;;;;;;;;51.93;9.28;100036.56;3948754;32;15722548;-69
2022/06/23 13:19:58;;;;;;;;;;;;;;;51.55;8.93;100035.06;3944626;32;15778457;-70
2022/06/23 13:22:24;;;;;;;;;;;;;;;50.87;9.23;100037.94;4422756;32;20005;-70
2022/06/23 13:24:56;;;;;;;;;;;;;;;49.96;9.85;100026.94;4423747;32;20392;-70
2022/06/23 13:27:25;;;;;;;;;;;;;;;49.24;10.05;100030.06;4420813;32;20445;-69
2022/06/23 13:29:55;;;;;;;;;;;;;;;48.54;10.51;100020.28;4421559;32;19964;-70
2022/06/23 13:32:34;;;;;;;;;;;;;;;47.96;10.97;100020.22;4424574;32;20338;-70
2022/06/23 13:35:18;;;;;;;;;;;;;;;47.18;11.38;100018.84;4423855;32;20052;-70
2022/06/23 13:37:54;;;;;;;;;;;;;;;46.46;12.14;100018.12;4420176;32;20196;-70
2022/06/23 13:40:24;;;;;;;;;;;;;;;46.03;12.35;100017.88;4421558;32;19953;-70
2022/06/23 13:43:09;;;;;;;;;;;;;;;46.27;12.34;100015.47;4425019;32;19986;-70
2022/06/23 13:48:17;;;;;;;;;;;;;;;46.19;12.60;100007.13;3951263;32;15723164;-71
2022/06/23 13:50:59;;;;;;;;;;;;;;;46.19;12.60;100007.13;4436058;32;20008;-69
2022/06/23 13:53:44;;;;;;;;;;;;;;;45.69;12.82;100008.88;4436936;32;20043;-70
2022/06/23 13:58:53;;;;;;;;;;;;;;;45.22;13.45;100020.28;3956644;32;15729366;-71
2022/06/23 14:01:27;;;;;;;;;;;;;;;45.22;13.45;100020.28;4431242;32;20061;-71
2022/06/23 14:03:58;;;;;;;;;;;;;;;43.30;15.01;100009.09;4428228;32;19965;-70
2022/06/23 14:06:33;;;;;;;;;;;;;;;42.29;15.85;100008.38;4427142;32;20604;-70
2022/06/23 14:09:18;;;;;;;;;;;;;;;41.87;16.12;100015.50;4419604;32;20012;-71
2022/06/23 14:14:29;;;;;;;;;;;;;;;41.71;16.46;100003.03;3943227;32;15722593;-72
2022/06/23 14:24:48;;;;;;;;;;;;;;;41.56;16.37;99992.06;3949307;31;15718817;-71
2022/06/23 14:27:34;;;;;;;;;;;;;;;41.56;16.37;99992.06;4431933;32;19997;-72
2022/06/23 14:30:06;;;;;;;;;;;;;;;41.31;16.41;99993.25;4427899;32;19988;-72
2022/06/23 14:32:41;;;;;;;;;;;;;;;41.14;16.49;99996.94;4429107;32;20005;-72
2022/06/23 14:37:49;;;;;;;;;;;;;;;41.60;15.86;99989.31;3942443;32;15725391;-71
2022/06/23 14:40:17;;;;;;;;;;;;;;;41.60;15.86;99989.31;4417387;32;19992;-71
2022/06/23 14:50:37;;;;;;;;;;;;;;;41.03;16.36;99980.22;3946948;32;15724476;-72
2022/06/23 14:53:07;;;;;;;;;;;;;;;40.47;16.79;99979.88;4418833;32;20043;-72
2022/06/23 14:55:36;;;;;;;;;;;;;;;40.75;16.56;99976.03;4416300;32;19991;-73
2022/06/23 14:58:13;;;;;;;;;;;;;;;40.34;17.05;99966.00;4416858;32;19987;-73
2022/06/23 15:00:45;;;;;;;;;;;;;;;40.23;17.30;99969.87;4420525;32;19980;-72
2022/06/23 15:03:30;;;;;;;;;;;;;;;40.35;17.44;99974.19;4421018;32;19993;-72
2022/06/23 15:06:16;;;;;;;;;;;;;;;40.13;17.69;99970.19;4420698;32;19957;-72
2022/06/23 15:08:51;;;;;;;;;;;;;;;40.23;17.69;99966.94;4420279;32;20538;-72
2022/06/23 15:11:21;;;;;;;;;;;;;;;40.50;17.69;99972.63;4423537;32;20603;-72
2022/06/23 15:16:34;;;;;;;;;;;;;;;39.56;18.29;99968.88;3952858;32;15725514;-71
2022/06/23 15:27:17;;;;;;;;;;;;;;;39.59;17.30;99950.66;3965856;31;15718656;-71
2022/06/23 15:29:48;;;;;;;;;;;;;;;39.59;17.30;99950.66;4444214;32;19976;-70
2022/06/23 15:32:19;;;;;;;;;;;;;;;38.87;18.29;99949.13;4449814;32;19960;-70
2022/06/23 15:34:50;;;;;;;;;;;;;;;39.08;18.24;99952.47;4446510;32;19944;-70
2022/06/23 15:42:36;;;;;;;;;;;;;;;39.17;18.50;99942.63;3949027;32;15723521;-70
2022/06/23 15:45:15;;;;;;;;;;;;;;;39.17;18.50;99942.63;4416463;32;19970;-71
2022/06/23 15:47:44;;;;;;;;;;;;;;;39.18;18.42;99941.22;4416425;32;19972;-71
2022/06/23 15:50:30;;;;;;;;;;;;;;;38.77;18.76;99936.84;4430932;32;19957;-71
2022/06/23 15:58:27;;;;;;;;;;;;;;;39.26;18.06;99937.91;3949539;32;15722495;-70
2022/06/23 16:00:58;;;;;;;;;;;;;;;39.26;18.06;99937.91;4421011;32;20886;-71
2022/06/23 16:03:32;;;;;;;;;;;;;;;38.79;18.54;99931.06;4426273;32;20558;-70
2022/06/23 16:06:02;;;;;;;;;;;;;;;38.73;18.30;99934.47;4426470;32;19956;-70
2022/06/23 16:08:31;;;;;;;;;;;;;;;38.96;18.08;99928.31;4427625;32;19960;-70
2022/06/23 16:10:59;;;;;;;;;;;;;;;39.15;18.07;99924.87;4424085;32;20018;-70
2022/06/23 16:13:27;;;;;;;;;;;;;;;38.68;18.42;99929.78;4426076;32;19965;-71
2022/06/23 16:15:54;;;;;;;;;;;;;;;39.17;17.87;99918.34;4425112;32;20448;-71
2022/06/23 16:18:29;;;;;;;;;;;;;;;38.84;18.01;99912.97;4426153;32;20327;-71
2022/06/23 16:29:02;;;;;;;;;;;;;;;39.40;17.03;99907.03;3948322;32;15724286;-71
2022/06/23 16:34:13;;;;;;;;;;;;;;;40.38;15.77;99904.25;3958481;32;15716342;-71
2022/06/23 16:36:46;;;;;;;;;;;;;;;40.38;15.77;99904.25;4421042;32;20353;-69
2022/06/23 16:39:19;;;;;;;;;;;;;;;40.20;15.92;99895.34;4422847;32;19966;-71
2022/06/23 16:42:05;;;;;;;;;;;;;;;40.41;15.93;99899.97;4424959;32;20007;-71
2022/06/23 16:57:38;;;;;;;;;;;;;;;43.34;13.94;99885.56;3971406;31;15716424;-72
2022/06/23 17:02:58;;;;;;;;;;;;;;;44.79;12.73;99878.81;3949380;32;15725536;-70
2022/06/23 17:05:43;;;;;;;;;;;;;;;44.79;12.73;99878.81;4429260;32;20360;-72
2022/06/23 17:08:14;;;;;;;;;;;;;;;44.67;12.19;99879.25;4427834;32;19954;-72
2022/06/23 17:10:43;;;;;;;;;;;;;;;44.79;12.29;99875.84;4427346;32;19969;-72
2022/06/23 17:15:48;;;;;;;;;;;;;;;44.55;12.33;99867.03;3950203;32;15722532;-72
2022/06/23 17:18:16;;;;;;;;;;;;;;;44.55;12.33;99867.03;4423244;32;19968;-72
2022/06/23 17:20:54;;;;;;;;;;;;;;;45.23;11.57;99862.09;4421085;32;20348;-72
2022/06/23 17:23:21;;;;;;;;;;;;;;;47.73;10.07;99871.44;4424817;32;20011;-72
2022/06/23 17:25:49;;;;;;;;;;;;;;;48.56;9.33;99873.97;4422785;32;19961;-72
2022/06/23 17:28:21;;;;;;;;;;;;;;;48.16;9.49;99868.28;4421639;32;19965;-72
2022/06/23 17:33:43;;;;;;;;;;;;;;;46.57;10.51;99860.56;3953723;32;15723356;-72
2022/06/23 17:36:19;;;;;;;;;;;;;;;46.57;10.51;99860.56;4438746;32;19961;-72
2022/06/23 17:44:33;;;;;;;;;;;;;;;44.35;12.08;99848.66;4433363;32;20017;-71
2022/06/23 17:47:02;;;;;;;;;;;;;;;43.89;12.45;99847.31;4434355;32;19994;-71
2022/06/23 17:49:29;;;;;;;;;;;;;;;43.37;12.79;99839.00;4425579;32;19981;-71
2022/06/23 17:51:56;;;;;;;;;;;;;;;43.31;12.85;99847.72;4433822;32;19953;-71
2022/06/23 17:54:37;;;;;;;;;;;;;;;43.18;12.91;99842.84;4434977;32;20394;-71
2022/06/23 17:57:06;;;;;;;;;;;;;;;42.74;13.33;99848.78;4434638;32;19957;-71
2022/06/23 17:59:34;;;;;;;;;;;;;;;42.04;13.85;99837.38;4433206;32;19953;-71
2022/06/23 18:04:41;;;;;;;;;;;;;;;40.09;15.59;99842.50;3950687;32;15726600;-71
2022/06/23 18:07:15;;;;;;;;;;;;;;;40.09;15.59;99842.50;4425296;32;20015;-71
2022/06/23 18:09:43;;;;;;;;;;;;;;;39.11;16.08;99836.38;4428566;32;19993;-71
2022/06/23 18:12:11;;;;;;;;;;;;;;;39.16;16.13;99831.44;4427621;32;19961;-71
2022/06/23 18:14:40;;;;;;;;;;;;;;;38.52;16.54;99846.56;4426821;32;20318;-71
2022/06/23 18:17:12;;;;;;;;;;;;;;;37.57;17.03;99854.63;4429722;32;20039;-71
2022/06/23 18:19:45;;;;;;;;;;;;;;;37.45;17.26;99848.09;4427984;32;20020;-71
2022/06/23 18:22:12;;;;;;;;;;;;;;;37.39;17.44;99851.44;4425381;32;20012;-70
2022/06/23 18:24:57;;;;;;;;;;;;;;;37.42;17.62;99852.31;4428830;32;19954;-70